createdAt,value
2017-11-07T00:01:16.111Z,95.70
2017-11-07T00:03:43.692Z,95.82
2017-11-07T00:06:11.281Z,96.26
2017-11-07T00:08:38.894Z,96.38
2017-11-07T00:11:07.208Z,96.63
2017-11-07T00:13:34.824Z,96.72
2017-11-07T00:16:02.375Z,96.83
2017-11-07T00:18:30.036Z,96.63
2017-11-07T00:20:57.651Z,96.68
2017-11-07T00:23:25.224Z,96.95
2017-11-07T00:25:52.819Z,96.09
2017-11-07T00:28:20.415Z,95.69
2017-11-07T00:30:48.011Z,94.74
2017-11-07T00:33:16.077Z,94.54
2017-11-07T00:35:43.780Z,94.89
2017-11-07T00:38:11.470Z,95.40
2017-11-07T00:40:39.130Z,95.75
2017-11-07T00:43:06.774Z,95.92
2017-11-07T00:45:34.479Z,96.16
2017-11-07T00:48:02.175Z,96.31
2017-11-07T00:50:29.776Z,96.10
2017-11-07T00:52:57.487Z,95.82
2017-11-07T00:55:25.109Z,95.28
2017-11-07T00:57:52.750Z,95.03
2017-11-07T01:00:20.329Z,95.29
2017-11-07T01:02:47.926Z,95.07
2017-11-07T01:05:15.498Z,94.97
2017-11-07T01:07:43.071Z,94.87
2017-11-07T01:10:10.715Z,94.83
2017-11-07T01:12:38.322Z,94.95
2017-11-07T01:15:06.057Z,94.82
2017-11-07T01:17:33.717Z,94.46
2017-11-07T01:20:01.292Z,94.22
2017-11-07T01:22:28.883Z,94.51
2017-11-07T01:24:56.489Z,94.36
2017-11-07T01:27:24.323Z,94.70
2017-11-07T01:29:51.919Z,94.84
2017-11-07T01:32:19.538Z,94.68
2017-11-07T01:34:47.113Z,95.09
2017-11-07T01:37:14.670Z,95.41
2017-11-07T01:39:42.309Z,95.40
2017-11-07T01:42:09.937Z,95.90
2017-11-07T01:44:37.525Z,96.07
2017-11-07T01:47:05.176Z,96.14
2017-11-07T01:49:32.849Z,96.25
2017-11-07T01:52:00.451Z,96.54
2017-11-07T01:54:28.032Z,96.65
2017-11-07T01:56:55.600Z,96.67
2017-11-07T01:59:23.218Z,96.81
2017-11-07T02:01:50.781Z,96.85
2017-11-07T02:04:18.377Z,96.85
2017-11-07T02:06:46.067Z,96.58
2017-11-07T02:09:13.641Z,96.65
2017-11-07T02:11:41.228Z,96.63
2017-11-07T02:14:08.940Z,96.69
2017-11-07T02:16:36.548Z,96.45
2017-11-07T02:19:04.145Z,96.07
2017-11-07T02:21:31.804Z,95.71
2017-11-07T02:23:59.413Z,96.00
2017-11-07T02:26:27.049Z,96.08
2017-11-07T02:28:54.666Z,95.76
2017-11-07T02:31:22.591Z,95.92
2017-11-07T02:33:50.344Z,95.88
2017-11-07T02:39:08.350Z,96.07
2017-11-07T02:41:35.957Z,95.80
2017-11-07T02:44:03.546Z,95.75
2017-11-07T02:46:31.204Z,95.40
2017-11-07T02:48:58.821Z,95.61
2017-11-07T02:51:26.699Z,95.53
2017-11-07T02:53:54.363Z,95.21
2017-11-07T02:56:21.963Z,95.26
2017-11-07T02:58:49.995Z,95.42
2017-11-07T03:01:18.074Z,95.65
2017-11-07T03:03:46.673Z,95.92
2017-11-07T03:06:14.345Z,96.09
2017-11-07T03:08:42.056Z,96.22
2017-11-07T03:11:11.492Z,96.17
2017-11-07T03:13:39.271Z,95.95
2017-11-07T03:16:06.859Z,95.91
2017-11-07T03:18:37.415Z,95.84
2017-11-07T03:21:05.104Z,95.37
2017-11-07T03:23:32.678Z,94.74
2017-11-07T03:26:01.396Z,94.33
2017-11-07T03:28:30.159Z,94.59
2017-11-07T03:30:57.746Z,94.52
2017-11-07T03:33:25.757Z,94.63
2017-11-07T03:35:55.497Z,94.94
2017-11-07T03:38:23.202Z,95.08
2017-11-07T03:40:50.804Z,95.08
2017-11-07T03:43:18.768Z,95.21
2017-11-07T03:45:47.209Z,94.61
2017-11-07T03:48:14.839Z,95.01
2017-11-07T03:50:42.401Z,95.35
2017-11-07T03:53:11.016Z,95.34
2017-11-07T03:55:38.607Z,94.38
2017-11-07T03:58:06.168Z,94.62
2017-11-07T04:00:34.502Z,94.32
2017-11-07T04:03:02.077Z,94.52
2017-11-07T04:05:29.869Z,94.29
2017-11-07T04:07:57.438Z,94.46
2017-11-07T04:10:25.023Z,94.42
2017-11-07T04:12:52.628Z,93.92
2017-11-07T04:15:20.585Z,93.94
2017-11-07T04:20:38.716Z,94.37
2017-11-07T04:23:06.510Z,93.74
2017-11-07T04:25:34.956Z,94.33
2017-11-07T04:28:02.548Z,93.78
2017-11-07T04:30:31.317Z,93.58
2017-11-07T04:32:58.933Z,94.10
2017-11-07T04:35:26.765Z,94.50
2017-11-07T04:37:54.330Z,94.26
2017-11-07T04:40:22.047Z,94.43
2017-11-07T04:42:49.617Z,94.12
2017-11-07T04:45:17.211Z,94.08
2017-11-07T04:47:44.791Z,94.66
2017-11-07T04:50:12.518Z,94.96
2017-11-07T04:52:40.083Z,94.49
2017-11-07T04:55:07.736Z,94.03
2017-11-07T04:57:36.186Z,94.48
2017-11-07T05:00:04.258Z,94.60
2017-11-07T05:02:31.989Z,94.47
2017-11-07T05:04:59.592Z,94.27
2017-11-07T05:07:27.616Z,94.22
2017-11-07T05:09:55.221Z,94.04
2017-11-07T05:12:23.205Z,93.77
2017-11-07T05:14:50.789Z,94.06
2017-11-07T05:17:18.827Z,93.94
2017-11-07T05:19:46.461Z,93.84
2017-11-07T05:22:14.045Z,94.04
2017-11-07T05:24:41.625Z,93.05
2017-11-07T05:27:09.856Z,93.83
2017-11-07T05:29:37.468Z,93.10
2017-11-07T05:32:05.093Z,93.09
2017-11-07T05:34:32.674Z,93.28
2017-11-07T05:37:00.284Z,93.18
2017-11-07T05:39:29.111Z,93.26
2017-11-07T05:41:56.761Z,92.61
2017-11-07T05:44:25.127Z,93.30
2017-11-07T05:46:52.707Z,92.06
2017-11-07T05:49:20.308Z,91.45
2017-11-07T05:51:48.024Z,91.63
2017-11-07T05:54:15.696Z,92.26
2017-11-07T05:56:43.285Z,91.78
2017-11-07T05:59:10.925Z,91.28
2017-11-07T06:01:39.188Z,90.54
2017-11-07T06:04:06.793Z,90.02
2017-11-07T06:06:34.346Z,90.84
2017-11-07T06:09:01.924Z,91.29
2017-11-07T06:11:30.084Z,91.39
2017-11-07T06:13:58.499Z,91.74
2017-11-07T06:16:26.115Z,90.85
2017-11-07T06:18:53.723Z,90.53
2017-11-07T06:21:21.295Z,91.30
2017-11-07T06:23:48.892Z,90.87
2017-11-07T06:26:16.558Z,90.60
2017-11-07T06:28:44.182Z,89.60
2017-11-07T06:31:11.846Z,89.77
2017-11-07T06:33:39.429Z,90.03
2017-11-07T06:36:07.249Z,90.28
2017-11-07T06:38:34.971Z,89.16
2017-11-07T06:41:02.977Z,89.24
2017-11-07T06:43:30.991Z,90.05
2017-11-07T06:45:58.570Z,90.03
2017-11-07T06:48:27.016Z,90.22
2017-11-07T06:50:54.598Z,90.33
2017-11-07T06:53:22.559Z,89.82
2017-11-07T06:55:50.136Z,90.16
2017-11-07T06:58:17.735Z,90.42
2017-11-07T07:00:45.339Z,90.67
2017-11-07T07:03:14.602Z,90.31
2017-11-07T07:05:45.104Z,90.00
2017-11-07T07:08:12.745Z,89.57
2017-11-07T07:10:40.380Z,89.47
2017-11-07T07:13:08.015Z,89.15
2017-11-07T07:15:35.582Z,89.69
2017-11-07T07:18:03.160Z,89.29
2017-11-07T07:20:30.753Z,89.31
2017-11-07T07:22:58.347Z,89.53
2017-11-07T07:25:25.945Z,89.17
2017-11-07T07:27:54.020Z,88.91
2017-11-07T07:30:21.953Z,88.81
2017-11-07T07:32:49.553Z,89.16
2017-11-07T07:35:17.134Z,89.49
2017-11-07T07:37:44.746Z,88.65
2017-11-07T07:40:12.329Z,88.64
2017-11-07T07:42:40.736Z,89.13
2017-11-07T07:45:08.762Z,88.53
2017-11-07T07:47:36.350Z,88.65
2017-11-07T07:50:04.169Z,88.54
2017-11-07T07:52:33.248Z,88.71
2017-11-07T07:55:00.838Z,88.58
2017-11-07T07:57:29.029Z,88.40
2017-11-07T07:59:56.631Z,88.20
2017-11-07T08:02:24.364Z,87.84
2017-11-07T08:04:52.129Z,88.01
2017-11-07T08:07:19.719Z,88.11
2017-11-07T08:09:47.306Z,88.34
2017-11-07T08:12:15.387Z,88.68
2017-11-07T08:14:43.056Z,88.24
2017-11-07T08:17:11.006Z,87.52
2017-11-07T08:19:38.673Z,88.17
2017-11-07T08:22:06.282Z,88.03
2017-11-07T08:24:33.910Z,87.88
2017-11-07T08:27:02.129Z,87.88
2017-11-07T08:29:29.857Z,88.26
2017-11-07T08:31:57.558Z,87.94
2017-11-07T08:34:25.590Z,88.99
2017-11-07T08:36:53.211Z,88.45
2017-11-07T08:39:20.856Z,88.05
2017-11-07T08:41:48.484Z,88.02
2017-11-07T08:44:16.150Z,88.33
2017-11-07T08:46:43.763Z,88.35
2017-11-07T08:49:11.544Z,88.23
2017-11-07T08:51:39.104Z,88.57
2017-11-07T08:54:06.889Z,88.49
2017-11-07T08:56:34.570Z,88.18
2017-11-07T08:59:02.182Z,88.32
2017-11-07T09:01:29.754Z,88.18
2017-11-07T09:03:57.365Z,88.28
2017-11-07T09:06:25.138Z,87.80
2017-11-07T09:08:52.742Z,87.29
2017-11-07T09:11:20.570Z,87.13
2017-11-07T09:13:48.242Z,86.95
2017-11-07T09:16:15.956Z,87.19
2017-11-07T09:18:43.625Z,87.39
2017-11-07T09:24:01.480Z,87.78
2017-11-07T09:26:29.127Z,87.60
2017-11-07T09:28:56.811Z,87.41
2017-11-07T09:31:24.427Z,87.68
2017-11-07T09:33:52.043Z,87.73
2017-11-07T09:36:19.629Z,87.67
2017-11-07T09:38:47.229Z,87.63
2017-11-07T09:41:14.834Z,87.46
2017-11-07T09:43:42.451Z,87.50
2017-11-07T09:46:10.084Z,86.83
2017-11-07T09:48:37.720Z,86.88
2017-11-07T09:51:05.509Z,86.75
2017-11-07T09:53:33.123Z,86.41
2017-11-07T09:56:00.763Z,87.65
2017-11-07T09:58:28.367Z,85.99
2017-11-07T10:00:55.956Z,86.80
2017-11-07T10:03:23.687Z,86.73
2017-11-07T10:05:51.275Z,86.27
2017-11-07T10:08:18.868Z,85.73
2017-11-07T10:10:46.502Z,84.95
2017-11-07T10:13:14.060Z,84.57
2017-11-07T10:15:41.673Z,84.33
2017-11-07T10:18:09.320Z,84.42
2017-11-07T10:20:36.905Z,84.29
2017-11-07T10:23:04.583Z,83.91
2017-11-07T10:25:32.304Z,84.45
2017-11-07T10:27:59.917Z,84.11
2017-11-07T10:30:28.012Z,84.31
2017-11-07T10:32:55.620Z,85.02
2017-11-07T10:35:23.437Z,85.59
2017-11-07T10:37:51.096Z,85.24
2017-11-07T10:40:18.790Z,85.89
2017-11-07T10:42:46.355Z,85.16
2017-11-07T10:45:14.285Z,85.62
2017-11-07T10:47:41.873Z,84.89
2017-11-07T10:50:09.830Z,85.51
2017-11-07T10:52:37.456Z,85.94
2017-11-07T10:55:05.131Z,84.99
2017-11-07T10:57:32.762Z,84.96
2017-11-07T11:00:00.403Z,85.29
2017-11-07T11:02:30.798Z,84.88
2017-11-07T11:04:58.685Z,84.48
2017-11-07T11:07:26.503Z,84.90
2017-11-07T11:09:54.411Z,83.46
2017-11-07T11:12:22.063Z,82.45
2017-11-07T11:14:49.667Z,82.27
2017-11-07T11:17:17.321Z,80.50
2017-11-07T11:19:44.891Z,80.87
2017-11-07T11:22:12.536Z,81.39
2017-11-07T11:24:40.182Z,82.00
2017-11-07T11:27:08.068Z,79.11
2017-11-07T11:29:36.065Z,78.19
2017-11-07T11:32:04.084Z,79.38
2017-11-07T11:34:31.675Z,78.81
2017-11-07T11:37:00.902Z,78.29
2017-11-07T11:39:28.973Z,78.69
2017-11-07T11:41:56.525Z,78.38
2017-11-07T11:44:24.105Z,78.24
2017-11-07T11:46:51.697Z,77.36
2017-11-07T11:49:19.299Z,78.41
2017-11-07T11:51:46.874Z,77.35
2017-11-07T11:54:14.476Z,78.43
2017-11-07T11:56:42.064Z,78.58
2017-11-07T11:59:09.669Z,79.52
2017-11-07T12:01:37.382Z,80.49
2017-11-07T12:04:04.979Z,79.39
2017-11-07T12:06:32.560Z,78.01
2017-11-07T12:09:00.194Z,77.10
2017-11-07T12:11:27.922Z,77.06
2017-11-07T12:14:01.260Z,76.30
2017-11-07T12:16:28.848Z,76.54
2017-11-07T12:18:56.654Z,75.59
2017-11-07T12:21:25.001Z,74.00
2017-11-07T12:23:52.593Z,73.11
2017-11-07T12:26:20.257Z,73.43
2017-11-07T12:28:47.903Z,72.25
2017-11-07T12:31:15.510Z,71.02
2017-11-07T12:33:43.101Z,72.70
2017-11-07T12:36:10.690Z,72.09
2017-11-07T12:38:38.310Z,69.71
2017-11-07T12:41:06.050Z,64.79
2017-11-07T12:43:33.674Z,62.55
2017-11-07T12:46:01.250Z,61.72
2017-11-07T12:48:29.214Z,65.91
2017-11-07T12:51:08.900Z,66.43
2017-11-07T12:53:36.542Z,66.91
2017-11-07T12:56:04.116Z,65.47
2017-11-07T12:58:31.927Z,65.65
2017-11-07T13:00:59.511Z,63.45
2017-11-07T13:03:27.162Z,62.87
2017-11-07T13:05:54.718Z,65.60
2017-11-07T13:08:22.356Z,67.28
2017-11-07T13:10:49.945Z,68.45
2017-11-07T13:13:17.547Z,69.89
2017-11-07T13:15:45.129Z,70.18
2017-11-07T13:18:12.748Z,70.32
2017-11-07T13:20:40.334Z,66.89
2017-11-07T13:23:07.951Z,67.58
2017-11-07T13:25:36.072Z,64.71
2017-11-07T13:28:03.695Z,66.96
2017-11-07T13:30:32.524Z,62.10
2017-11-07T13:33:00.165Z,62.14
2017-11-07T13:35:27.737Z,63.17
2017-11-07T13:37:55.428Z,64.23
2017-11-07T13:40:23.032Z,61.48
2017-11-07T13:42:50.631Z,63.73
2017-11-07T13:45:18.230Z,68.48
2017-11-07T13:47:45.964Z,68.47
2017-11-07T13:50:13.581Z,69.34
2017-11-07T13:52:41.179Z,70.61
2017-11-07T13:55:08.826Z,71.20
2017-11-07T13:57:36.400Z,73.02
2017-11-07T14:00:04.067Z,73.35
2017-11-07T14:02:31.673Z,73.27
2017-11-07T14:04:59.310Z,73.96
2017-11-07T14:07:26.899Z,73.95
2017-11-07T14:09:54.505Z,73.91
2017-11-07T14:12:23.994Z,74.46
2017-11-07T14:14:51.637Z,73.37
2017-11-07T14:17:19.255Z,74.38
2017-11-07T14:19:46.845Z,75.01
2017-11-07T14:22:14.515Z,75.90
2017-11-07T14:24:42.071Z,76.20
2017-11-07T14:27:09.760Z,77.23
2017-11-07T14:29:37.456Z,76.71
2017-11-07T14:32:05.051Z,77.21
2017-11-07T14:34:32.642Z,76.72
2017-11-07T14:37:00.244Z,76.61
2017-11-07T14:39:28.791Z,77.04
2017-11-07T14:41:56.506Z,77.09
2017-11-07T14:44:24.089Z,77.50
2017-11-07T14:46:51.699Z,78.19
2017-11-07T14:49:19.271Z,78.26
2017-11-07T14:51:46.859Z,78.90
2017-11-07T14:54:14.560Z,79.45
2017-11-07T14:56:42.160Z,79.61
2017-11-07T14:59:09.820Z,79.60
2017-11-07T15:01:40.369Z,80.11
2017-11-07T15:04:08.029Z,80.02
2017-11-07T15:06:35.659Z,80.41
2017-11-07T15:09:07.231Z,80.40
2017-11-07T15:11:36.239Z,79.97
2017-11-07T15:14:03.826Z,80.12
2017-11-07T15:16:31.416Z,79.14
2017-11-07T15:18:59.028Z,79.79
2017-11-07T15:21:26.601Z,79.96
2017-11-07T15:23:54.224Z,80.31
2017-11-07T15:26:21.818Z,79.93
2017-11-07T15:28:49.405Z,79.99
2017-11-07T15:31:17.029Z,79.79
2017-11-07T15:33:49.523Z,80.14
2017-11-07T15:36:17.093Z,79.65
2017-11-07T15:38:44.693Z,79.87
2017-11-07T15:41:13.729Z,79.44
2017-11-07T15:43:41.604Z,79.00
2017-11-07T15:46:09.194Z,78.83
2017-11-07T15:48:37.686Z,78.96
2017-11-07T15:51:08.479Z,79.53
2017-11-07T15:53:37.651Z,79.83
2017-11-07T15:56:07.145Z,79.82
2017-11-07T15:58:34.746Z,80.19
2017-11-07T16:01:02.348Z,80.36
2017-11-07T16:03:31.092Z,81.29
2017-11-07T16:05:58.643Z,81.48
2017-11-07T16:08:26.283Z,81.11
2017-11-07T16:10:53.962Z,81.28
2017-11-07T16:13:21.574Z,81.41
2017-11-07T16:15:49.183Z,81.57
2017-11-07T16:18:17.065Z,81.82
2017-11-07T16:20:44.639Z,80.11
2017-11-07T16:23:12.289Z,79.92
2017-11-07T16:25:39.889Z,78.91
2017-11-07T16:28:07.974Z,79.77
2017-11-07T16:30:35.786Z,80.02
2017-11-07T16:33:03.391Z,80.35
2017-11-07T16:35:31.058Z,78.24
2017-11-07T16:37:58.655Z,77.41
2017-11-07T16:40:26.245Z,76.92
2017-11-07T16:42:53.816Z,76.84
2017-11-07T16:48:11.607Z,77.43
2017-11-07T16:50:39.196Z,77.09
2017-11-07T16:53:06.796Z,76.50
2017-11-07T16:55:35.439Z,77.26
2017-11-07T17:00:53.480Z,76.02
2017-11-07T17:03:22.557Z,75.48
2017-11-07T17:05:50.305Z,75.47
2017-11-07T17:08:18.030Z,75.38
2017-11-07T17:10:45.921Z,76.02
2017-11-07T17:13:13.568Z,75.99
2017-11-07T17:15:41.555Z,76.36
2017-11-07T17:18:09.449Z,75.85
2017-11-07T17:20:37.194Z,76.37
2017-11-07T17:23:06.148Z,76.15
2017-11-07T17:25:34.140Z,75.76
2017-11-07T17:28:01.737Z,76.74
2017-11-07T17:30:29.392Z,76.54
2017-11-07T17:32:57.682Z,76.57
2017-11-07T17:35:25.355Z,77.69
2017-11-07T17:37:52.949Z,78.10
2017-11-07T17:40:38.149Z,77.15
2017-11-07T17:43:07.556Z,77.29
2017-11-07T17:45:37.979Z,78.03
2017-11-07T17:48:05.790Z,78.43
2017-11-07T17:50:33.360Z,78.67
2017-11-07T17:53:00.950Z,78.59
2017-11-07T17:55:30.586Z,78.88
2017-11-07T17:57:58.293Z,79.72
2017-11-07T18:00:25.891Z,80.75
2017-11-07T18:02:53.530Z,80.65
2017-11-07T18:05:22.683Z,80.94
2017-11-07T18:07:50.366Z,80.96
2017-11-07T18:10:18.298Z,80.43
2017-11-07T18:12:46.490Z,80.70
2017-11-07T18:15:14.228Z,81.27
2017-11-07T18:17:42.674Z,81.78
2017-11-07T18:20:12.717Z,82.12
2017-11-07T18:22:40.265Z,83.20
2017-11-07T18:25:07.899Z,82.20
2017-11-07T18:27:35.503Z,82.72
2017-11-07T18:30:03.192Z,83.36
2017-11-07T18:32:35.275Z,83.20
2017-11-07T18:35:06.138Z,83.01
2017-11-07T18:37:33.708Z,83.20
2017-11-07T18:40:01.291Z,83.83
2017-11-07T18:42:28.974Z,83.54
2017-11-07T18:44:56.518Z,82.68
2017-11-07T18:47:24.745Z,82.93
2017-11-07T18:49:52.333Z,81.89
2017-11-07T18:52:20.527Z,81.65
2017-11-07T18:54:48.354Z,82.69
2017-11-07T18:57:15.961Z,82.40
2017-11-07T18:59:43.606Z,83.13
2017-11-07T19:02:11.168Z,83.83
2017-11-07T19:04:38.739Z,83.23
2017-11-07T19:07:07.987Z,83.81
2017-11-07T19:09:35.593Z,84.20
2017-11-07T19:12:04.201Z,84.31
2017-11-07T19:14:31.760Z,84.05
2017-11-07T19:16:59.329Z,84.53
2017-11-07T19:19:26.931Z,83.74
2017-11-07T19:21:54.508Z,83.06
2017-11-07T19:24:22.176Z,83.12
2017-11-07T19:26:49.765Z,82.01
2017-11-07T19:29:17.402Z,81.20
2017-11-07T19:31:45.080Z,79.76
2017-11-07T19:34:14.588Z,79.88
2017-11-07T19:36:42.250Z,80.31
2017-11-07T19:39:09.915Z,79.65
2017-11-07T19:41:37.545Z,78.56
2017-11-07T19:44:07.020Z,79.00
2017-11-07T19:46:34.718Z,79.45
2017-11-07T19:49:04.373Z,79.28
2017-11-07T19:51:31.945Z,77.58
2017-11-07T19:54:00.280Z,78.13
2017-11-07T19:56:28.192Z,78.34
2017-11-07T19:58:55.761Z,79.09
2017-11-07T20:01:23.368Z,78.41
2017-11-07T20:03:51.881Z,78.28
2017-11-07T20:06:19.507Z,77.75
2017-11-07T20:08:47.133Z,77.21
2017-11-07T20:11:27.459Z,77.25
2017-11-07T20:13:55.057Z,77.95
2017-11-07T20:16:22.904Z,77.25
2017-11-07T20:18:50.537Z,77.45
2017-11-07T20:21:18.148Z,76.61
2017-11-07T20:23:45.715Z,77.54
2017-11-07T20:26:13.346Z,77.54
2017-11-07T20:28:40.948Z,77.80
2017-11-07T20:31:08.963Z,78.48
2017-11-07T20:33:36.578Z,79.89
2017-11-07T20:36:04.493Z,78.56
2017-11-07T20:38:32.076Z,78.94
2017-11-07T20:40:59.630Z,79.40
2017-11-07T20:43:27.261Z,79.67
2017-11-07T20:45:54.853Z,78.62
2017-11-07T20:48:22.438Z,77.56
2017-11-07T20:50:50.045Z,77.94
2017-11-07T20:53:17.642Z,77.95
2017-11-07T20:55:45.253Z,77.84
2017-11-07T20:58:12.855Z,77.57
2017-11-07T21:00:40.431Z,76.56
2017-11-07T21:03:08.026Z,76.47
2017-11-07T21:05:35.915Z,76.66
2017-11-07T21:08:04.414Z,76.71
2017-11-07T21:10:32.016Z,76.96
2017-11-07T21:12:59.625Z,76.39
2017-11-07T21:15:27.225Z,75.83
2017-11-07T21:17:54.827Z,76.39
2017-11-07T21:20:25.426Z,76.48
2017-11-07T21:22:53.399Z,76.72
2017-11-07T21:25:21.449Z,77.38
2017-11-07T21:27:53.711Z,76.69
2017-11-07T21:30:21.392Z,76.54
2017-11-07T21:32:48.961Z,77.24
2017-11-07T21:35:16.606Z,76.85
2017-11-07T21:37:44.216Z,77.61
2017-11-07T21:40:11.976Z,77.03
2017-11-07T21:42:39.610Z,76.79
2017-11-07T21:45:07.290Z,77.37
2017-11-07T21:47:34.881Z,76.99
2017-11-07T21:50:02.530Z,77.12
2017-11-07T21:52:30.146Z,77.64
2017-11-07T21:54:58.527Z,77.38
2017-11-07T21:57:26.789Z,77.39
2017-11-07T21:59:54.421Z,77.66
2017-11-07T22:02:22.008Z,78.18
2017-11-07T22:04:49.615Z,78.32
2017-11-07T22:07:17.250Z,78.87
2017-11-07T22:09:44.868Z,78.83
2017-11-07T22:12:16.125Z,79.25
2017-11-07T22:14:43.693Z,79.46
2017-11-07T22:17:11.337Z,80.06
2017-11-07T22:19:39.066Z,80.84
2017-11-07T22:22:06.700Z,80.38
2017-11-07T22:24:34.265Z,80.48
2017-11-07T22:27:03.804Z,80.26
2017-11-07T22:29:32.221Z,80.05
2017-11-07T22:31:59.854Z,80.17
2017-11-07T22:34:27.475Z,80.51
2017-11-07T22:36:55.045Z,80.62
2017-11-07T22:39:22.650Z,80.19
2017-11-07T22:41:50.225Z,79.97
2017-11-07T22:44:17.764Z,79.98
2017-11-07T22:46:45.343Z,79.97
2017-11-07T22:49:13.274Z,80.09
2017-11-07T22:51:40.874Z,80.36
2017-11-07T22:54:08.443Z,80.23
2017-11-07T22:56:36.081Z,80.37
2017-11-07T22:59:03.655Z,80.34
2017-11-07T23:01:32.356Z,80.68
2017-11-07T23:04:01.947Z,80.87
2017-11-07T23:06:31.250Z,81.33
2017-11-07T23:08:58.969Z,81.36
2017-11-07T23:11:26.615Z,81.02
2017-11-07T23:13:54.192Z,81.63
2017-11-07T23:16:21.738Z,81.86
2017-11-07T23:18:49.341Z,81.38
2017-11-07T23:21:19.234Z,81.33
2017-11-07T23:23:46.861Z,81.59
2017-11-07T23:26:14.491Z,81.40
2017-11-07T23:28:42.084Z,81.82
2017-11-07T23:31:10.297Z,82.36
2017-11-07T23:33:37.882Z,82.65
2017-11-07T23:36:05.547Z,83.42
2017-11-07T23:38:33.132Z,84.00
2017-11-07T23:41:00.781Z,84.41
2017-11-07T23:43:28.756Z,84.58
2017-11-07T23:45:56.328Z,84.96
2017-11-07T23:48:23.969Z,84.98
2017-11-07T23:50:51.608Z,85.34
2017-11-07T23:53:19.167Z,86.54
2017-11-07T23:55:46.745Z,86.41
2017-11-07T23:58:14.614Z,84.59
